Time;durP1;ratioP1;P1;durP2;ratioP2;P2;SDS_P1;SDS_P2;PMS_P1;PMS_P2;Temp;Humidity;BMP_temperature;BMP_pressure;BME280_temperature;BME280_humidity;BME280_pressure;Samples;Min_cycle;Max_cycle;Signal;HPM_P1;HPM_P2
2021/06/13 00:01:18;;;;;;;13.88;5.40;;;12.20;99.30;;;;;;5027931;28;20050;-64
2021/06/13 00:03:44;;;;;;;15.82;5.70;;;12.20;99.30;;;;;;5029277;28;20075;-64
2021/06/13 00:06:10;;;;;;;11.48;5.72;;;12.20;99.30;;;;;;5028229;28;20109;-64
2021/06/13 00:08:35;;;;;;;12.27;4.82;;;12.10;99.50;;;;;;5029528;28;20037;-64
2021/06/13 00:11:01;;;;;;;15.50;5.30;;;12.00;99.30;;;;;;5029077;28;20099;-64
2021/06/13 00:13:27;;;;;;;14.15;5.60;;;12.00;99.30;;;;;;5029658;28;20041;-64
2021/06/13 00:15:53;;;;;;;13.73;5.05;;;11.90;99.40;;;;;;5029063;28;20038;-64
2021/06/13 00:18:20;;;;;;;12.73;5.78;;;11.90;99.40;;;;;;5028889;28;20042;-64
2021/06/13 00:20:46;;;;;;;13.20;5.35;;;11.90;99.50;;;;;;5028392;28;20483;-64
2021/06/13 00:23:12;;;;;;;10.10;4.75;;;11.80;99.40;;;;;;5028852;28;20103;-64
2021/06/13 00:25:38;;;;;;;18.55;6.75;;;11.80;99.40;;;;;;5029000;28;20084;-64
2021/06/13 00:28:04;;;;;;;10.68;5.53;;;11.80;99.40;;;;;;5028922;28;20033;-64
2021/06/13 00:30:30;;;;;;;13.57;5.90;;;11.70;99.40;;;;;;5029413;28;20033;-64
2021/06/13 00:32:55;;;;;;;12.52;5.13;;;11.70;99.40;;;;;;5029102;28;20048;-64
2021/06/13 00:35:22;;;;;;;17.63;5.70;;;11.60;99.50;;;;;;5028129;28;20037;-64
2021/06/13 00:37:49;;;;;;;10.40;5.40;;;11.60;99.60;;;;;;5028258;28;20054;-64
2021/06/13 00:40:18;;;;;;;9.55;5.32;;;11.60;99.70;;;;;;5028677;28;20055;-64
2021/06/13 00:42:44;;;;;;;9.90;5.22;;;11.60;99.80;;;;;;5029357;28;20038;-64
2021/06/13 00:45:11;;;;;;;16.80;6.82;;;11.60;99.80;;;;;;5028138;28;20033;-64
2021/06/13 00:47:37;;;;;;;15.55;6.50;;;11.50;99.90;;;;;;5021671;28;20029;-64
2021/06/13 00:50:29;;;;;;;10.18;5.88;;;11.50;99.90;;;;;;5024086;28;20045;-64
2021/06/13 00:52:56;;;;;;;17.88;6.88;;;11.50;99.90;;;;;;5021840;28;20147;-64
2021/06/13 00:55:22;;;;;;;14.20;6.18;;;11.50;99.90;;;;;;5023347;28;20073;-64
2021/06/13 00:57:48;;;;;;;13.93;6.65;;;11.50;99.90;;;;;;5022812;28;20541;-64
2021/06/13 01:00:14;;;;;;;15.30;6.47;;;11.50;99.90;;;;;;5023635;28;20468;-64
2021/06/13 01:02:40;;;;;;;16.20;6.80;;;11.50;99.90;;;;;;5023698;28;20057;-64
2021/06/13 01:05:07;;;;;;;16.08;6.75;;;11.50;99.90;;;;;;5023118;28;20034;-64
2021/06/13 01:07:52;;;;;;;17.40;7.30;;;11.50;99.90;;;;;;5020396;28;20041;-64
2021/06/13 01:11:12;;;;;;;17.95;7.13;;;11.50;99.90;;;;;;5023453;28;20392;-64
2021/06/13 01:13:48;;;;;;;16.85;6.43;;;11.50;99.90;;;;;;4964964;28;20042;-64
2021/06/13 01:16:35;;;;;;;13.30;6.13;;;11.50;99.90;;;;;;5021712;28;20049;-64
2021/06/13 01:19:16;;;;;;;17.50;6.72;;;11.50;99.90;;;;;;5021763;28;20039;-64
2021/06/13 01:22:14;;;;;;;14.45;6.95;;;11.50;99.90;;;;;;5023338;28;20049;-64
2021/06/13 01:25:01;;;;;;;15.93;7.05;;;11.50;99.90;;;;;;5022725;28;20057;-64
2021/06/13 01:27:58;;;;;;;14.65;6.78;;;11.50;99.90;;;;;;5021328;28;20030;-64
2021/06/13 01:30:28;;;;;;;14.68;6.53;;;11.40;99.90;;;;;;5022754;28;20056;-64
2021/06/13 01:33:02;;;;;;;16.00;7.20;;;11.40;99.90;;;;;;5021194;28;20684;-64
2021/06/13 01:35:29;;;;;;;12.88;6.32;;;11.40;99.90;;;;;;5023598;28;20036;-64
2021/06/13 01:37:56;;;;;;;18.42;7.35;;;11.40;99.90;;;;;;5023326;28;20041;-64
2021/06/13 01:40:28;;;;;;;13.77;6.60;;;11.40;99.90;;;;;;5023504;28;20041;-64
2021/06/13 01:42:54;;;;;;;13.75;6.90;;;11.40;99.90;;;;;;5022863;28;20041;-64
2021/06/13 01:45:34;;;;;;;13.15;6.65;;;11.40;99.90;;;;;;5023331;28;20041;-64
2021/06/13 01:48:01;;;;;;;21.05;6.70;;;11.40;99.90;;;;;;5021571;28;20033;-64
2021/06/13 01:50:28;;;;;;;15.52;7.50;;;11.40;99.90;;;;;;5020941;28;20045;-64
2021/06/13 01:52:56;;;;;;;13.85;7.22;;;11.40;99.90;;;;;;5023374;28;20041;-64
2021/06/13 01:55:24;;;;;;;15.80;6.10;;;11.40;99.90;;;;;;5022722;28;20033;-64
2021/06/13 01:57:51;;;;;;;12.95;6.78;;;11.40;99.90;;;;;;5022086;28;20037;-64
2021/06/13 02:00:18;;;;;;;12.93;6.63;;;11.40;99.90;;;;;;5020345;28;20084;-64
2021/06/13 02:02:50;;;;;;;12.32;6.38;;;11.40;99.90;;;;;;5021842;28;20044;-64
2021/06/13 02:05:17;;;;;;;17.25;6.43;;;11.40;99.90;;;;;;5021699;28;20045;-64
2021/06/13 02:07:44;;;;;;;14.85;6.18;;;11.40;99.90;;;;;;5022406;28;20038;-64
2021/06/13 02:10:13;;;;;;;11.63;6.75;;;11.30;99.90;;;;;;5022266;28;20120;-64
2021/06/13 02:12:42;;;;;;;14.68;6.60;;;11.30;99.90;;;;;;5021990;28;20535;-64
2021/06/13 02:15:09;;;;;;;14.52;7.03;;;11.30;99.90;;;;;;5022080;28;20037;-64
2021/06/13 02:17:37;;;;;;;10.00;5.57;;;11.30;99.90;;;;;;5022315;28;20044;-64
2021/06/13 02:20:05;;;;;;;15.02;6.63;;;11.20;99.90;;;;;;5022117;28;20052;-64
2021/06/13 02:22:33;;;;;;;10.48;5.18;;;11.10;99.90;;;;;;5021368;28;20554;-64
2021/06/13 02:24:58;;;;;;;13.23;5.50;;;11.10;99.90;;;;;;5022828;28;20037;-64
2021/06/13 02:27:27;;;;;;;11.57;5.55;;;11.10;99.90;;;;;;5023182;28;20048;-64
2021/06/13 02:29:53;;;;;;;12.13;6.22;;;11.10;99.90;;;;;;5021828;28;20441;-64
2021/06/13 02:32:22;;;;;;;14.15;6.50;;;11.00;99.90;;;;;;5026665;28;20594;-64
2021/06/13 02:34:49;;;;;;;11.05;6.28;;;11.00;99.90;;;;;;5027566;28;20121;-64
2021/06/13 02:37:16;;;;;;;12.98;6.40;;;10.90;99.90;;;;;;5026785;28;20896;-64
2021/06/13 02:39:42;;;;;;;13.45;6.20;;;10.80;99.90;;;;;;5027749;28;20052;-64
2021/06/13 02:42:08;;;;;;;13.15;7.03;;;10.80;99.90;;;;;;5025584;28;20037;-64
2021/06/13 02:44:34;;;;;;;10.82;6.53;;;10.80;99.90;;;;;;5027635;28;20168;-64
2021/06/13 02:47:00;;;;;;;13.15;6.93;;;10.80;99.90;;;;;;5025775;28;20033;-64
2021/06/13 02:49:26;;;;;;;15.13;6.25;;;10.80;99.90;;;;;;5027518;28;20053;-64
2021/06/13 02:52:29;;;;;;;8.60;5.20;;;10.80;99.90;;;;;;5026691;28;20495;-64
2021/06/13 02:54:59;;;;;;;11.77;6.05;;;10.70;99.90;;;;;;5026757;28;20042;-64
2021/06/13 02:57:29;;;;;;;14.02;6.15;;;10.70;99.90;;;;;;5025545;28;20115;-64
2021/06/13 02:59:59;;;;;;;12.57;5.80;;;10.70;99.90;;;;;;5027145;28;20041;-64
2021/06/13 03:02:27;;;;;;;14.18;6.65;;;10.70;99.90;;;;;;5027101;28;20047;-64
2021/06/13 03:04:54;;;;;;;13.82;6.85;;;10.70;99.90;;;;;;5025547;28;20068;-64
2021/06/13 03:07:20;;;;;;;15.25;5.78;;;10.70;99.90;;;;;;5025496;28;20061;-64
2021/06/13 03:09:52;;;;;;;11.48;5.75;;;10.70;99.90;;;;;;5025567;28;20127;-64
2021/06/13 03:12:19;;;;;;;12.48;7.30;;;10.60;99.90;;;;;;5029274;28;20045;-64
2021/06/13 03:14:46;;;;;;;12.50;7.82;;;10.60;99.90;;;;;;5030472;28;20120;-64
2021/06/13 03:17:13;;;;;;;13.45;7.07;;;10.50;99.90;;;;;;5029988;28;20037;-64
2021/06/13 03:19:41;;;;;;;18.15;7.43;;;10.50;99.90;;;;;;5030339;28;20037;-64
2021/06/13 03:22:07;;;;;;;14.93;7.07;;;10.40;99.90;;;;;;5030113;28;20044;-64
2021/06/13 03:24:35;;;;;;;11.57;6.88;;;10.50;99.90;;;;;;5029849;28;20041;-64
2021/06/13 03:27:03;;;;;;;17.50;7.03;;;10.40;99.90;;;;;;5029898;28;20108;-64
2021/06/13 03:29:30;;;;;;;16.13;7.55;;;10.50;99.90;;;;;;5029574;28;20419;-64
2021/06/13 03:31:58;;;;;;;15.77;6.60;;;10.50;99.90;;;;;;5029256;28;20034;-64
2021/06/13 03:34:23;;;;;;;16.33;7.68;;;10.50;99.90;;;;;;5030392;28;20488;-64
2021/06/13 03:36:50;;;;;;;14.05;6.80;;;10.50;99.90;;;;;;5030184;28;20088;-64
2021/06/13 03:39:17;;;;;;;12.27;6.70;;;10.50;99.90;;;;;;5029619;28;20835;-64
2021/06/13 03:41:45;;;;;;;20.17;7.25;;;10.60;99.90;;;;;;5029591;28;20044;-64
2021/06/13 03:44:12;;;;;;;14.82;7.53;;;10.60;99.90;;;;;;5029496;28;20042;-64
2021/06/13 03:46:39;;;;;;;17.08;8.07;;;10.60;99.90;;;;;;5028939;28;20030;-64
2021/06/13 03:49:06;;;;;;;14.70;7.95;;;10.70;99.90;;;;;;5029776;28;20201;-64
2021/06/13 03:51:32;;;;;;;14.70;7.43;;;10.70;99.90;;;;;;5027718;28;20049;-64
2021/06/13 03:53:58;;;;;;;13.57;7.30;;;10.70;99.90;;;;;;5029574;28;20038;-64
2021/06/13 03:56:31;;;;;;;10.55;6.65;;;10.70;99.90;;;;;;5029178;28;20033;-64
2021/06/13 03:58:58;;;;;;;11.68;7.65;;;10.80;99.90;;;;;;5028566;28;20118;-64
2021/06/13 04:01:24;;;;;;;12.60;7.65;;;10.80;99.90;;;;;;5029604;28;20056;-64
2021/06/13 04:03:52;;;;;;;19.98;7.65;;;10.90;99.90;;;;;;5030197;28;20119;-64
2021/06/13 04:06:22;;;;;;;11.57;6.22;;;10.90;99.90;;;;;;5029014;28;20079;-64
2021/06/13 04:08:50;;;;;;;13.30;6.32;;;11.00;99.90;;;;;;5027468;28;20078;-64
2021/06/13 04:11:18;;;;;;;12.65;7.38;;;11.10;99.90;;;;;;5028662;28;20115;-64
2021/06/13 04:13:45;;;;;;;15.00;6.78;;;11.10;99.90;;;;;;5028855;28;20116;-64
2021/06/13 04:16:10;;;;;;;14.07;7.30;;;11.20;99.90;;;;;;5028445;28;20437;-64
2021/06/13 04:18:37;;;;;;;14.60;6.72;;;11.30;99.90;;;;;;5029349;28;20120;-64
2021/06/13 04:21:08;;;;;;;12.30;7.15;;;11.40;99.90;;;;;;5029307;28;20828;-64
2021/06/13 04:23:35;;;;;;;15.00;7.68;;;11.50;99.90;;;;;;5028206;28;20037;-64
2021/06/13 04:26:01;;;;;;;12.75;7.75;;;11.60;99.90;;;;;;5028318;28;20648;-64
2021/06/13 04:28:29;;;;;;;15.82;8.20;;;11.70;99.90;;;;;;5028396;28;20037;-64
2021/06/13 04:31:03;;;;;;;18.60;9.05;;;11.70;99.90;;;;;;5028940;28;20373;-64
2021/06/13 04:33:30;;;;;;;17.50;10.25;;;11.80;99.90;;;;;;5029105;28;20097;-64
2021/06/13 04:35:56;;;;;;;14.63;8.52;;;11.80;99.90;;;;;;5028781;28;20103;-64
2021/06/13 04:38:22;;;;;;;17.42;7.95;;;11.80;99.90;;;;;;5029439;28;20119;-64
2021/06/13 04:40:48;;;;;;;18.42;7.53;;;12.00;99.90;;;;;;5029158;28;20111;-64
2021/06/13 04:43:13;;;;;;;15.32;8.30;;;12.10;99.90;;;;;;5028054;28;20068;-64
2021/06/13 04:45:39;;;;;;;15.32;8.60;;;12.40;99.90;;;;;;5028390;28;20057;-64
2021/06/13 04:48:06;;;;;;;15.65;7.30;;;12.70;99.90;;;;;;5027984;28;20032;-64
2021/06/13 04:50:40;;;;;;;17.75;7.65;;;13.00;99.90;;;;;;5028911;28;20045;-64
2021/06/13 04:53:47;;;;;;;12.98;6.28;;;13.50;99.50;;;;;;5027954;28;20049;-65
2021/06/13 04:56:25;;;;;;;10.35;6.30;;;14.50;98.80;;;;;;5027049;28;20148;-64
2021/06/13 04:58:51;;;;;;;12.63;5.88;;;16.00;96.60;;;;;;5028197;28;20087;-64
2021/06/13 05:01:17;;;;;;;16.75;7.03;;;17.20;94.40;;;;;;5027470;28;20051;-65
2021/06/13 05:03:45;;;;;;;12.73;6.13;;;18.00;91.90;;;;;;5028587;28;20037;-65
2021/06/13 05:06:11;;;;;;;12.40;6.60;;;18.10;90.40;;;;;;5028200;28;20041;-65
2021/06/13 05:08:40;;;;;;;16.60;7.55;;;18.10;89.80;;;;;;5027104;28;20118;-64
2021/06/13 05:11:06;;;;;;;12.48;5.88;;;17.80;90.10;;;;;;5027723;28;20037;-65
2021/06/13 05:13:33;;;;;;;14.48;6.43;;;17.60;91.30;;;;;;5024139;28;20080;-65
2021/06/13 05:15:58;;;;;;;10.77;6.07;;;17.50;92.20;;;;;;5021657;28;20045;-65
2021/06/13 05:18:24;;;;;;;13.98;6.03;;;17.60;93.00;;;;;;5021051;28;20116;-65
2021/06/13 05:20:53;;;;;;;12.50;6.05;;;17.70;93.30;;;;;;5023409;28;20046;-65
2021/06/13 05:23:20;;;;;;;9.20;5.38;;;17.80;93.20;;;;;;5022143;28;20052;-65
2021/06/13 05:25:46;;;;;;;10.55;5.60;;;18.10;93.30;;;;;;5021345;28;20041;-65
2021/06/13 05:28:12;;;;;;;10.75;5.65;;;18.30;93.10;;;;;;5022967;28;20076;-65
2021/06/13 05:30:38;;;;;;;12.93;5.95;;;18.50;92.50;;;;;;5021865;28;20072;-65
2021/06/13 05:33:06;;;;;;;13.68;5.07;;;18.70;91.90;;;;;;5021371;28;20468;-65
2021/06/13 05:35:33;;;;;;;9.63;5.47;;;18.90;91.50;;;;;;5023318;28;20040;-65
2021/06/13 05:37:59;;;;;;;12.90;5.28;;;19.00;91.40;;;;;;5021964;28;20037;-65
2021/06/13 05:40:26;;;;;;;13.10;5.45;;;19.10;91.00;;;;;;5023150;28;20037;-65
2021/06/13 05:42:52;;;;;;;23.98;5.93;;;19.30;90.80;;;;;;5024263;28;20037;-65
2021/06/13 05:45:19;;;;;;;14.20;5.63;;;19.50;90.50;;;;;;5025763;28;20124;-65
2021/06/13 05:47:45;;;;;;;15.57;5.50;;;19.80;90.20;;;;;;5026728;28;20045;-65
2021/06/13 05:50:12;;;;;;;10.80;4.72;;;20.00;89.80;;;;;;5024628;28;20052;-65
2021/06/13 05:52:38;;;;;;;7.45;4.70;;;20.30;89.00;;;;;;5027088;28;20064;-65
2021/06/13 05:55:05;;;;;;;11.73;5.15;;;20.40;87.90;;;;;;5026024;28;20045;-65
2021/06/13 05:57:32;;;;;;;13.55;5.13;;;20.60;86.40;;;;;;5026550;28;20048;-65
2021/06/13 06:00:00;;;;;;;11.82;4.65;;;20.70;86.30;;;;;;5025934;28;20037;-65
2021/06/13 06:02:26;;;;;;;7.35;4.13;;;20.80;85.60;;;;;;5027166;28;20102;-65
2021/06/13 06:04:52;;;;;;;8.43;4.50;;;21.00;84.70;;;;;;5027421;28;20046;-65
2021/06/13 06:07:18;;;;;;;12.32;4.65;;;21.10;83.90;;;;;;5023657;28;20072;-65
2021/06/13 06:09:44;;;;;;;14.30;4.97;;;21.20;82.60;;;;;;5026623;28;20029;-65
2021/06/13 06:12:12;;;;;;;11.07;4.40;;;21.40;82.90;;;;;;5025607;28;20403;-65
2021/06/13 06:14:40;;;;;;;38.38;6.07;;;21.60;82.00;;;;;;5026622;28;20053;-65
2021/06/13 06:17:06;;;;;;;9.65;4.22;;;21.80;80.70;;;;;;5026002;28;20041;-65
2021/06/13 06:19:31;;;;;;;12.95;4.63;;;22.00;79.20;;;;;;5026313;28;20072;-66
2021/06/13 06:21:57;;;;;;;10.80;5.20;;;22.10;77.30;;;;;;5026185;28;20077;-66
2021/06/13 06:24:23;;;;;;;11.57;5.22;;;22.20;76.80;;;;;;5026715;28;20496;-67
2021/06/13 06:26:49;;;;;;;8.18;3.60;;;22.30;76.90;;;;;;5025881;28;20042;-65
2021/06/13 06:29:14;;;;;;;12.27;4.78;;;22.50;76.00;;;;;;5026534;28;20412;-66
2021/06/13 06:31:40;;;;;;;10.00;4.70;;;22.60;75.40;;;;;;5025123;28;20041;-66
2021/06/13 06:34:06;;;;;;;12.82;5.15;;;22.80;73.50;;;;;;5021772;28;20484;-66
2021/06/13 06:36:32;;;;;;;10.55;5.05;;;22.80;71.30;;;;;;5019267;28;20538;-66
2021/06/13 06:38:57;;;;;;;11.30;4.97;;;22.80;72.30;;;;;;5022006;28;20044;-66
2021/06/13 06:41:23;;;;;;;8.80;4.63;;;22.90;70.50;;;;;;5022862;28;20636;-66
2021/06/13 06:43:49;;;;;;;9.88;4.28;;;22.80;70.00;;;;;;5021762;28;20561;-66
2021/06/13 06:46:14;;;;;;;9.93;4.55;;;22.90;70.00;;;;;;5023456;28;20051;-65
2021/06/13 06:48:40;;;;;;;10.07;3.80;;;23.00;68.90;;;;;;5025836;28;20095;-66
2021/06/13 06:51:06;;;;;;;10.77;4.43;;;23.10;69.00;;;;;;5025030;28;20037;-66
2021/06/13 06:53:31;;;;;;;10.98;4.70;;;23.30;67.50;;;;;;5026535;28;20042;-66
2021/06/13 06:55:57;;;;;;;12.20;4.97;;;23.40;62.40;;;;;;5025856;28;20102;-66
2021/06/13 06:58:23;;;;;;;9.93;4.43;;;23.10;63.50;;;;;;5026365;28;20173;-66
2021/06/13 07:00:49;;;;;;;9.43;3.90;;;23.10;65.10;;;;;;5026957;28;20102;-66
2021/06/13 07:03:14;;;;;;;10.07;3.88;;;23.10;64.60;;;;;;5028512;28;20041;-66
2021/06/13 07:05:40;;;;;;;6.03;3.42;;;23.20;64.30;;;;;;5030564;28;20049;-66
2021/06/13 07:08:06;;;;;;;8.48;4.78;;;23.30;61.30;;;;;;5028295;28;20037;-66
2021/06/13 07:10:32;;;;;;;10.27;4.13;;;23.40;62.10;;;;;;5025666;28;20675;-66
2021/06/13 07:12:58;;;;;;;9.13;4.20;;;23.60;60.90;;;;;;5027189;28;20046;-66
2021/06/13 07:15:24;;;;;;;8.68;4.30;;;23.40;57.20;;;;;;5026168;28;20499;-66
2021/06/13 07:17:50;;;;;;;7.70;3.55;;;23.30;60.50;;;;;;5027237;28;20041;-66
2021/06/13 07:20:16;;;;;;;6.97;3.53;;;23.30;60.70;;;;;;5029219;28;20104;-66
2021/06/13 07:22:42;;;;;;;9.15;4.15;;;23.30;60.40;;;;;;5027961;28;20541;-66
2021/06/13 07:25:09;;;;;;;10.15;4.55;;;23.40;61.30;;;;;;5028865;28;20169;-66
2021/06/13 07:27:37;;;;;;;9.52;3.30;;;23.60;60.80;;;;;;5027997;28;20120;-66
2021/06/13 07:30:09;;;;;;;12.82;3.53;;;23.70;59.80;;;;;;5027507;28;20061;-66
2021/06/13 07:32:36;;;;;;;10.02;3.72;;;23.70;58.70;;;;;;5026735;28;20483;-66
2021/06/13 07:35:06;;;;;;;9.65;3.95;;;23.80;58.40;;;;;;5026863;28;20163;-66
2021/06/13 07:37:31;;;;;;;7.78;3.03;;;23.70;55.90;;;;;;5026429;28;20037;-66
2021/06/13 07:39:57;;;;;;;7.93;3.55;;;23.60;58.40;;;;;;5028809;28;20094;-66
2021/06/13 07:42:23;;;;;;;6.45;3.20;;;23.60;55.20;;;;;;5027363;28;20049;-65
2021/06/13 07:44:50;;;;;;;6.63;3.22;;;23.30;52.50;;;;;;5028795;28;20041;-66
2021/06/13 07:47:17;;;;;;;6.20;2.90;;;23.30;55.00;;;;;;5028671;28;20072;-66
2021/06/13 07:49:42;;;;;;;5.95;2.53;;;23.30;55.60;;;;;;5028186;28;20041;-66
2021/06/13 07:52:08;;;;;;;5.20;2.70;;;23.00;51.40;;;;;;5028058;28;20048;-66
2021/06/13 07:54:34;;;;;;;8.52;3.58;;;22.80;52.70;;;;;;5026057;28;20040;-66
2021/06/13 07:56:59;;;;;;;8.20;4.20;;;22.80;55.10;;;;;;5022996;28;20041;-66
2021/06/13 07:59:25;;;;;;;10.82;4.03;;;22.80;56.90;;;;;;5028410;28;20518;-66
2021/06/13 08:01:51;;;;;;;10.85;2.75;;;22.80;54.80;;;;;;5011969;28;20054;-66
2021/06/13 08:04:17;;;;;;;6.13;3.20;;;22.70;54.10;;;;;;5009447;28;20149;-66
2021/06/13 08:06:43;;;;;;;6.60;3.03;;;22.70;55.80;;;;;;5017208;28;20072;-66
2021/06/13 08:09:08;;;;;;;6.70;2.95;;;22.80;55.70;;;;;;5025322;28;20491;-66
2021/06/13 08:11:35;;;;;;;11.13;3.03;;;22.80;52.50;;;;;;5028715;28;20095;-66
2021/06/13 08:14:01;;;;;;;9.88;3.72;;;22.80;54.80;;;;;;5028578;28;20029;-66
2021/06/13 08:16:27;;;;;;;5.20;3.40;;;22.80;55.20;;;;;;5025419;28;20053;-66
2021/06/13 08:18:53;;;;;;;12.45;3.95;;;22.80;54.00;;;;;;5027052;28;20729;-66
2021/06/13 08:21:19;;;;;;;8.38;3.60;;;22.90;56.70;;;;;;5027571;28;20491;-66
2021/06/13 08:23:46;;;;;;;6.75;2.92;;;22.90;55.10;;;;;;5027482;28;20048;-66
2021/06/13 08:26:12;;;;;;;12.30;3.72;;;22.70;56.20;;;;;;5028646;28;20554;-66
2021/06/13 08:28:38;;;;;;;9.30;3.53;;;22.70;56.30;;;;;;5025175;28;20053;-66
2021/06/13 08:31:03;;;;;;;12.30;3.50;;;23.00;58.70;;;;;;5027351;28;20502;-68
2021/06/13 08:33:29;;;;;;;7.47;3.20;;;23.20;59.20;;;;;;5026853;28;20510;-64
2021/06/13 08:35:55;;;;;;;9.73;3.25;;;23.40;57.00;;;;;;5025762;28;20037;-66
2021/06/13 08:38:21;;;;;;;7.88;3.50;;;23.30;56.10;;;;;;5028801;28;20392;-66
2021/06/13 08:40:48;;;;;;;8.63;3.28;;;23.40;57.40;;;;;;5027258;28;20558;-66
2021/06/13 08:43:14;;;;;;;9.68;3.50;;;23.30;56.80;;;;;;5027934;28;20048;-66
2021/06/13 08:45:40;;;;;;;8.02;3.83;;;23.40;58.80;;;;;;5026735;28;20037;-65
2021/06/13 08:48:08;;;;;;;8.85;4.22;;;23.40;54.80;;;;;;5025172;28;20069;-66
2021/06/13 08:50:35;;;;;;;8.35;3.63;;;23.10;56.50;;;;;;5026439;28;20044;-65
2021/06/13 08:53:02;;;;;;;6.53;3.20;;;23.00;55.60;;;;;;5026926;28;20098;-65
2021/06/13 08:55:29;;;;;;;9.95;3.50;;;23.10;55.90;;;;;;5026316;28;20033;-66
2021/06/13 08:57:56;;;;;;;7.10;3.40;;;23.00;56.90;;;;;;5025315;28;20075;-65
2021/06/13 09:00:26;;;;;;;6.43;3.40;;;23.00;57.20;;;;;;5026917;28;20040;-65
2021/06/13 09:02:52;;;;;;;7.43;2.80;;;23.20;58.30;;;;;;5024109;28;21265;-65
2021/06/13 09:05:22;;;;;;;7.72;3.15;;;23.30;55.50;;;;;;5022105;28;20045;-65
2021/06/13 09:07:53;;;;;;;6.38;3.13;;;23.50;56.10;;;;;;5024608;28;20094;-65
2021/06/13 09:10:23;;;;;;;5.20;2.88;;;23.80;56.40;;;;;;5016708;28;20045;-66
2021/06/13 09:12:51;;;;;;;5.78;2.83;;;23.90;56.30;;;;;;5026520;28;20137;-65
2021/06/13 09:15:17;;;;;;;8.90;3.70;;;23.90;57.00;;;;;;5027036;28;20079;-65
2021/06/13 09:17:44;;;;;;;7.28;3.42;;;23.90;56.40;;;;;;5025298;28;20090;-65
2021/06/13 09:20:23;;;;;;;6.13;2.95;;;24.00;55.10;;;;;;5025944;28;20037;-65
2021/06/13 09:23:09;;;;;;;9.90;3.85;;;24.00;55.80;;;;;;5024506;28;20033;-65
2021/06/13 09:25:43;;;;;;;6.13;3.20;;;24.10;55.40;;;;;;5025263;28;20041;-65
2021/06/13 09:28:16;;;;;;;11.00;3.78;;;24.10;54.90;;;;;;5024265;28;20038;-65
2021/06/13 09:30:44;;;;;;;6.65;3.42;;;24.10;55.40;;;;;;5025222;28;20057;-65
2021/06/13 09:33:19;;;;;;;7.68;3.47;;;24.10;56.20;;;;;;5024641;28;20399;-65
2021/06/13 09:35:47;;;;;;;8.50;3.73;;;24.20;55.20;;;;;;5027089;28;20144;-65
2021/06/13 09:38:17;;;;;;;8.25;3.63;;;24.40;54.90;;;;;;5024931;28;20531;-66
2021/06/13 09:40:46;;;;;;;6.78;2.90;;;24.60;55.40;;;;;;5025487;28;20076;-65
2021/06/13 09:43:36;;;;;;;8.48;3.38;;;24.60;53.30;;;;;;5024750;28;20033;-65
2021/06/13 09:46:19;;;;;;;8.13;3.17;;;24.70;55.80;;;;;;5019924;28;20596;-65
2021/06/13 09:48:48;;;;;;;13.77;4.10;;;24.60;52.10;;;;;;5024828;28;20029;-65
2021/06/13 09:51:32;;;;;;;9.75;4.10;;;24.40;54.30;;;;;;5022008;28;20053;-66
2021/06/13 09:53:57;;;;;;;5.50;3.20;;;24.50;54.50;;;;;;5020939;28;20037;-65
2021/06/13 09:56:31;;;;;;;6.78;2.80;;;24.60;53.40;;;;;;5022641;28;20597;-66
2021/06/13 09:59:04;;;;;;;9.00;3.67;;;24.50;52.20;;;;;;5025331;28;20045;-65
2021/06/13 10:01:39;;;;;;;8.90;3.40;;;24.50;54.00;;;;;;5022663;28;20484;-65
2021/06/13 10:04:28;;;;;;;7.60;3.38;;;24.50;53.90;;;;;;5024142;28;20585;-65
2021/06/13 10:06:57;;;;;;;6.28;3.55;;;24.60;55.40;;;;;;5020305;28;20037;-65
2021/06/13 10:09:35;;;;;;;9.82;3.28;;;24.80;53.80;;;;;;5025429;28;20037;-66
2021/06/13 10:12:07;;;;;;;7.80;3.85;;;24.80;55.20;;;;;;5026322;28;20041;-66
2021/06/13 10:14:32;;;;;;;7.55;3.88;;;24.60;53.50;;;;;;5025862;28;20530;-66
2021/06/13 10:16:58;;;;;;;10.05;3.40;;;24.50;52.60;;;;;;5025113;28;20046;-66
2021/06/13 10:19:45;;;;;;;9.32;3.38;;;24.40;49.80;;;;;;5026064;28;20033;-66
2021/06/13 10:22:12;;;;;;;7.85;3.30;;;24.30;52.20;;;;;;5028830;28;20053;-66
2021/06/13 10:24:41;;;;;;;6.70;3.38;;;24.40;55.40;;;;;;5030414;28;20376;-66
2021/06/13 10:27:13;;;;;;;6.55;3.13;;;24.30;53.40;;;;;;5052683;28;20038;-66
2021/06/13 10:29:41;;;;;;;7.18;3.08;;;24.00;51.90;;;;;;5025875;28;20152;-66
2021/06/13 10:32:08;;;;;;;7.20;3.15;;;23.70;54.40;;;;;;5030229;28;20029;-66
2021/06/13 10:34:35;;;;;;;8.68;2.90;;;23.50;55.20;;;;;;5029829;28;20446;-66
2021/06/13 10:37:04;;;;;;;6.20;3.67;;;23.60;56.00;;;;;;5056495;28;20109;-66
2021/06/13 10:39:31;;;;;;;6.43;3.60;;;23.80;55.80;;;;;;5030953;28;20038;-66
2021/06/13 10:41:58;;;;;;;6.10;3.35;;;24.10;55.00;;;;;;5028680;28;20450;-66
2021/06/13 10:44:27;;;;;;;10.15;4.50;;;24.10;56.50;;;;;;5028146;28;20454;-65
2021/06/13 10:46:55;;;;;;;10.55;3.80;;;23.80;55.70;;;;;;5028457;28;20547;-65
2021/06/13 10:49:33;;;;;;;6.53;3.05;;;23.70;56.60;;;;;;5030552;28;20052;-65
2021/06/13 10:52:21;;;;;;;6.75;3.60;;;23.70;56.70;;;;;;5029145;28;20034;-65
2021/06/13 10:54:50;;;;;;;8.55;3.25;;;23.80;56.50;;;;;;5030794;28;20774;-65
2021/06/13 10:57:16;;;;;;;9.15;3.45;;;23.90;54.00;;;;;;5027558;28;20200;-65
2021/06/13 10:59:50;;;;;;;13.65;3.80;;;24.10;56.00;;;;;;5028673;28;20547;-66
2021/06/13 11:02:22;;;;;;;6.80;3.67;;;24.20;55.20;;;;;;5022611;28;20056;-65
2021/06/13 11:04:55;;;;;;;8.75;3.92;;;24.40;53.00;;;;;;5024220;28;20061;-66
2021/06/13 11:12:48;;;;;;;14.07;4.18;;;24.60;55.50;;;;;;5029905;28;20029;-66
2021/06/13 11:15:40;;;;;;;5.75;3.10;;;24.70;56.30;;;;;;5027165;28;20146;-65
2021/06/13 11:18:07;;;;;;;5.13;2.60;;;24.80;52.30;;;;;;5024933;28;20103;-66
2021/06/13 11:20:54;;;;;;;4.53;2.88;;;24.70;55.00;;;;;;5028299;28;20045;-65
2021/06/13 11:23:23;;;;;;;6.85;3.28;;;24.90;54.30;;;;;;5029630;28;20041;-65
2021/06/13 11:25:50;;;;;;;7.18;2.97;;;24.90;52.00;;;;;;5028317;28;20115;-66
2021/06/13 11:28:22;;;;;;;5.95;3.17;;;24.90;51.90;;;;;;5022372;28;20148;-66
2021/06/13 11:30:59;;;;;;;8.82;3.75;;;25.00;54.00;;;;;;5056739;28;20041;-67
2021/06/13 11:33:44;;;;;;;6.35;3.15;;;25.00;55.00;;;;;;5026588;28;20033;-65
2021/06/13 11:36:15;;;;;;;5.15;3.25;;;24.70;53.80;;;;;;5022994;28;20037;-65
2021/06/13 11:38:43;;;;;;;9.38;3.40;;;24.50;54.80;;;;;;5029800;28;20107;-65
2021/06/13 11:41:22;;;;;;;9.10;3.42;;;24.60;56.50;;;;;;5028712;28;20041;-65
2021/06/13 11:43:48;;;;;;;6.78;3.05;;;24.70;56.70;;;;;;5028152;28;20095;-65
2021/06/13 11:46:33;;;;;;;9.40;3.58;;;24.80;55.80;;;;;;5028393;28;20809;-65
2021/06/13 11:48:59;;;;;;;8.75;4.10;;;24.80;54.80;;;;;;5026382;28;20041;-66
2021/06/13 11:51:25;;;;;;;7.00;3.13;;;24.90;54.00;;;;;;5028067;28;20069;-65
2021/06/13 11:54:03;;;;;;;7.10;3.08;;;24.80;51.70;;;;;;5026854;28;20068;-65
2021/06/13 11:56:35;;;;;;;8.23;3.20;;;24.70;52.10;;;;;;5029105;28;20034;-65
2021/06/13 11:59:14;;;;;;;5.00;2.85;;;24.80;53.90;;;;;;5029273;28;20041;-65
2021/06/13 12:01:46;;;;;;;7.40;3.45;;;24.80;53.80;;;;;;5028832;28;20049;-65
2021/06/13 12:04:15;;;;;;;8.52;3.00;;;25.00;54.70;;;;;;5027118;28;20539;-65
2021/06/13 12:06:43;;;;;;;9.18;3.10;;;25.00;54.80;;;;;;5055188;28;20507;-65
2021/06/13 12:09:11;;;;;;;9.20;3.50;;;25.00;56.50;;;;;;5026459;28;20080;-65
2021/06/13 12:11:42;;;;;;;9.15;3.75;;;24.90;52.70;;;;;;5029619;28;20052;-67
2021/06/13 12:14:25;;;;;;;5.13;3.17;;;24.90;53.60;;;;;;5027963;28;20030;-65
2021/06/13 12:17:01;;;;;;;8.05;3.60;;;24.90;51.30;;;;;;5026998;28;20041;-65
2021/06/13 12:19:41;;;;;;;11.23;3.90;;;24.80;54.10;;;;;;5027070;28;20042;-66
2021/06/13 12:28:09;;;;;;;;;;;25.20;57.90;;;;;;5027747;28;20480;-66
2021/06/13 12:30:37;;;;;;;7.10;3.30;;;25.30;57.60;;;;;;5028391;28;19924;-66
2021/06/13 12:33:06;;;;;;;6.95;3.13;;;25.40;54.40;;;;;;5026378;28;20120;-65
2021/06/13 12:35:35;;;;;;;8.65;3.22;;;25.40;54.60;;;;;;5027708;28;20095;-65
2021/06/13 12:38:06;;;;;;;10.68;2.70;;;25.50;55.50;;;;;;5026153;28;20041;-65
2021/06/13 12:40:37;;;;;;;11.98;3.58;;;25.50;54.10;;;;;;5025085;28;20044;-66
2021/06/13 12:43:05;;;;;;;5.45;3.05;;;25.50;52.80;;;;;;5026999;28;20045;-66
2021/06/13 12:45:30;;;;;;;7.75;2.70;;;25.50;54.00;;;;;;5028442;28;20060;-65
2021/06/13 12:47:59;;;;;;;8.07;3.35;;;25.60;53.70;;;;;;5025197;28;20480;-66
2021/06/13 12:50:33;;;;;;;7.25;3.22;;;25.40;54.70;;;;;;5026683;28;20495;-68
2021/06/13 12:53:03;;;;;;;8.82;2.92;;;25.40;54.50;;;;;;5028309;28;20041;-65
2021/06/13 12:55:45;;;;;;;8.35;3.95;;;25.30;52.70;;;;;;5027545;28;20038;-65
2021/06/13 12:58:13;;;;;;;7.97;3.40;;;25.40;52.70;;;;;;5025896;28;20041;-65
2021/06/13 13:00:39;;;;;;;6.85;2.67;;;25.40;52.50;;;;;;5023757;28;20053;-65
2021/06/13 13:03:09;;;;;;;6.18;3.03;;;25.50;52.80;;;;;;5027679;28;20037;-65